Naran Bulag, China
Current Conditions -  °F | °C
As of 10:00 AM on Thursday 23 Oct 2014 (Local Time) from ZBHH Reporting Station
Clear Clear  
Wind Chill: 54°   Ceiling: Unl
Heat Index: 54°   Visibility: 4mi
Dew Point: 37°   Wind: 2mph
Humidity: 54%   Direction: 160°SSE
Pressure: 30.03"   Gusts: NA
Location:  44.62°N, 114.15°E
Report Text: ZBHH 230200Z 16001MPS 7000 NSC 12/03 Q1017 NOSIG
Loading
Personal Weather Stations






























Interactive Weather Map
Tropical Storm Tracking
New forecast layout! Learn more

10-Day Weather Forecast

Advertisements
Track Severe Weather on mobile